sensor_id;sensor_type;location;lat;lon;timestamp;P1;durP1;ratioP1;P2;durP2;ratioP2
65210;SDS011;51794;52.758;55.792;2022-12-29T00:02:02;5.47;;;2.65;;
65210;SDS011;51794;52.758;55.792;2022-12-29T00:04:28;6.07;;;2.80;;
65210;SDS011;51794;52.758;55.792;2022-12-29T00:06:54;4.85;;;2.75;;
65210;SDS011;51794;52.758;55.792;2022-12-29T00:09:20;4.95;;;3.10;;
65210;SDS011;51794;52.758;55.792;2022-12-29T00:11:46;5.97;;;2.80;;
65210;SDS011;51794;52.758;55.792;2022-12-29T00:14:12;4.95;;;3.00;;
65210;SDS011;51794;52.758;55.792;2022-12-29T00:16:56;6.80;;;3.38;;
65210;SDS011;51794;52.758;55.792;2022-12-29T00:19:23;5.05;;;2.95;;
65210;SDS011;51794;52.758;55.792;2022-12-29T00:22:09;6.50;;;3.22;;
65210;SDS011;51794;52.758;55.792;2022-12-29T00:24:54;4.88;;;2.70;;
65210;SDS011;51794;52.758;55.792;2022-12-29T00:27:39;6.32;;;3.47;;
65210;SDS011;51794;52.758;55.792;2022-12-29T00:30:23;7.13;;;3.20;;
65210;SDS011;51794;52.758;55.792;2022-12-29T00:33:09;6.40;;;3.25;;
65210;SDS011;51794;52.758;55.792;2022-12-29T00:36:36;6.22;;;3.10;;
65210;SDS011;51794;52.758;55.792;2022-12-29T00:38:49;6.43;;;3.25;;
65210;SDS011;51794;52.758;55.792;2022-12-29T00:41:39;9.20;;;3.80;;
65210;SDS011;51794;52.758;55.792;2022-12-29T00:44:23;6.43;;;3.25;;
65210;SDS011;51794;52.758;55.792;2022-12-29T00:46:49;7.97;;;3.70;;
65210;SDS011;51794;52.758;55.792;2022-12-29T00:49:15;9.55;;;3.60;;
65210;SDS011;51794;52.758;55.792;2022-12-29T00:54:33;7.43;;;3.20;;
65210;SDS011;51794;52.758;55.792;2022-12-29T00:57:01;7.18;;;3.72;;
65210;SDS011;51794;52.758;55.792;2022-12-29T00:59:28;10.13;;;3.78;;
65210;SDS011;51794;52.758;55.792;2022-12-29T01:01:54;7.47;;;3.42;;
65210;SDS011;51794;52.758;55.792;2022-12-29T01:04:21;6.05;;;3.38;;
65210;SDS011;51794;52.758;55.792;2022-12-29T01:06:49;9.55;;;4.40;;
65210;SDS011;51794;52.758;55.792;2022-12-29T01:09:15;9.93;;;4.13;;
65210;SDS011;51794;52.758;55.792;2022-12-29T01:12:01;7.30;;;3.75;;
65210;SDS011;51794;52.758;55.792;2022-12-29T01:14:27;8.48;;;3.50;;
65210;SDS011;51794;52.758;55.792;2022-12-29T01:16:54;7.85;;;3.40;;
65210;SDS011;51794;52.758;55.792;2022-12-29T01:19:20;7.95;;;3.42;;
65210;SDS011;51794;52.758;55.792;2022-12-29T01:21:47;7.05;;;3.65;;
65210;SDS011;51794;52.758;55.792;2022-12-29T01:24:14;7.55;;;3.47;;
65210;SDS011;51794;52.758;55.792;2022-12-29T01:26:41;7.35;;;3.60;;
65210;SDS011;51794;52.758;55.792;2022-12-29T01:29:07;6.47;;;3.60;;
65210;SDS011;51794;52.758;55.792;2022-12-29T01:31:33;8.68;;;3.88;;
65210;SDS011;51794;52.758;55.792;2022-12-29T01:34:00;12.95;;;5.35;;
65210;SDS011;51794;52.758;55.792;2022-12-29T01:36:26;9.50;;;4.25;;
65210;SDS011;51794;52.758;55.792;2022-12-29T01:38:52;5.00;;;2.72;;
65210;SDS011;51794;52.758;55.792;2022-12-29T01:41:18;10.60;;;4.30;;
65210;SDS011;51794;52.758;55.792;2022-12-29T01:51:35;7.32;;;3.50;;
65210;SDS011;51794;52.758;55.792;2022-12-29T01:54:11;9.77;;;4.40;;
65210;SDS011;51794;52.758;55.792;2022-12-29T01:56:42;8.18;;;4.18;;
65210;SDS011;51794;52.758;55.792;2022-12-29T01:59:10;8.20;;;3.83;;
65210;SDS011;51794;52.758;55.792;2022-12-29T02:01:40;9.13;;;3.67;;
65210;SDS011;51794;52.758;55.792;2022-12-29T02:04:08;9.82;;;4.20;;
65210;SDS011;51794;52.758;55.792;2022-12-29T02:06:41;7.05;;;3.88;;
65210;SDS011;51794;52.758;55.792;2022-12-29T02:09:16;7.38;;;3.80;;
65210;SDS011;51794;52.758;55.792;2022-12-29T02:11:42;8.85;;;4.22;;
65210;SDS011;51794;52.758;55.792;2022-12-29T02:14:08;12.45;;;4.63;;
65210;SDS011;51794;52.758;55.792;2022-12-29T02:19:35;10.38;;;3.70;;
65210;SDS011;51794;52.758;55.792;2022-12-29T02:24:37;8.45;;;4.07;;
65210;SDS011;51794;52.758;55.792;2022-12-29T02:30:31;7.68;;;3.85;;
65210;SDS011;51794;52.758;55.792;2022-12-29T02:41:13;11.43;;;4.43;;
65210;SDS011;51794;52.758;55.792;2022-12-29T02:44:13;7.50;;;3.92;;
65210;SDS011;51794;52.758;55.792;2022-12-29T02:46:51;10.32;;;5.05;;
65210;SDS011;51794;52.758;55.792;2022-12-29T02:54:42;9.98;;;4.90;;
65210;SDS011;51794;52.758;55.792;2022-12-29T02:57:28;9.60;;;4.40;;
65210;SDS011;51794;52.758;55.792;2022-12-29T03:00:10;11.52;;;4.82;;
65210;SDS011;51794;52.758;55.792;2022-12-29T03:06:03;8.77;;;4.60;;
65210;SDS011;51794;52.758;55.792;2022-12-29T03:11:59;9.80;;;4.13;;
65210;SDS011;51794;52.758;55.792;2022-12-29T03:14:46;9.05;;;3.70;;
65210;SDS011;51794;52.758;55.792;2022-12-29T03:17:43;11.00;;;4.60;;
65210;SDS011;51794;52.758;55.792;2022-12-29T03:20:13;9.23;;;4.38;;
65210;SDS011;51794;52.758;55.792;2022-12-29T03:22:44;10.27;;;4.47;;
65210;SDS011;51794;52.758;55.792;2022-12-29T03:25:23;6.87;;;3.73;;
65210;SDS011;51794;52.758;55.792;2022-12-29T03:30:26;8.52;;;4.00;;
65210;SDS011;51794;52.758;55.792;2022-12-29T03:33:03;8.35;;;3.47;;
65210;SDS011;51794;52.758;55.792;2022-12-29T03:35:34;9.30;;;4.30;;
65210;SDS011;51794;52.758;55.792;2022-12-29T03:38:11;9.05;;;4.05;;
65210;SDS011;51794;52.758;55.792;2022-12-29T03:40:43;10.30;;;4.38;;
65210;SDS011;51794;52.758;55.792;2022-12-29T03:43:14;9.70;;;4.60;;
65210;SDS011;51794;52.758;55.792;2022-12-29T03:45:40;10.60;;;4.40;;
65210;SDS011;51794;52.758;55.792;2022-12-29T03:48:06;9.88;;;3.88;;
65210;SDS011;51794;52.758;55.792;2022-12-29T03:50:32;10.35;;;4.72;;
65210;SDS011;51794;52.758;55.792;2022-12-29T03:52:58;8.95;;;4.05;;
65210;SDS011;51794;52.758;55.792;2022-12-29T03:55:24;11.75;;;4.78;;
65210;SDS011;51794;52.758;55.792;2022-12-29T03:57:50;9.68;;;4.28;;
65210;SDS011;51794;52.758;55.792;2022-12-29T04:00:16;7.35;;;3.90;;
65210;SDS011;51794;52.758;55.792;2022-12-29T04:02:42;9.95;;;4.60;;
65210;SDS011;51794;52.758;55.792;2022-12-29T04:05:20;12.98;;;4.70;;
65210;SDS011;51794;52.758;55.792;2022-12-29T04:07:46;7.72;;;4.38;;
65210;SDS011;51794;52.758;55.792;2022-12-29T04:10:12;11.18;;;4.07;;
65210;SDS011;51794;52.758;55.792;2022-12-29T04:12:39;10.90;;;4.20;;
65210;SDS011;51794;52.758;55.792;2022-12-29T04:15:07;12.57;;;4.47;;
65210;SDS011;51794;52.758;55.792;2022-12-29T04:17:34;8.80;;;4.13;;
65210;SDS011;51794;52.758;55.792;2022-12-29T04:20:00;11.18;;;4.68;;
65210;SDS011;51794;52.758;55.792;2022-12-29T04:22:44;11.93;;;4.78;;
65210;SDS011;51794;52.758;55.792;2022-12-29T04:25:11;13.20;;;5.18;;
65210;SDS011;51794;52.758;55.792;2022-12-29T04:27:36;7.55;;;4.03;;
65210;SDS011;51794;52.758;55.792;2022-12-29T04:30:02;11.32;;;4.72;;
65210;SDS011;51794;52.758;55.792;2022-12-29T04:32:30;9.25;;;4.55;;
65210;SDS011;51794;52.758;55.792;2022-12-29T04:34:55;10.50;;;4.05;;
65210;SDS011;51794;52.758;55.792;2022-12-29T04:37:21;7.78;;;3.88;;
65210;SDS011;51794;52.758;55.792;2022-12-29T04:39:47;10.57;;;4.05;;
65210;SDS011;51794;52.758;55.792;2022-12-29T04:42:13;10.75;;;4.60;;
65210;SDS011;51794;52.758;55.792;2022-12-29T04:44:39;8.18;;;4.28;;
65210;SDS011;51794;52.758;55.792;2022-12-29T04:47:05;10.27;;;4.55;;
65210;SDS011;51794;52.758;55.792;2022-12-29T04:49:31;9.80;;;4.10;;
65210;SDS011;51794;52.758;55.792;2022-12-29T04:51:57;8.30;;;3.55;;
65210;SDS011;51794;52.758;55.792;2022-12-29T04:54:23;10.30;;;4.35;;
65210;SDS011;51794;52.758;55.792;2022-12-29T04:56:49;6.88;;;4.05;;
65210;SDS011;51794;52.758;55.792;2022-12-29T04:59:15;9.95;;;4.03;;
65210;SDS011;51794;52.758;55.792;2022-12-29T05:01:41;10.13;;;4.80;;
65210;SDS011;51794;52.758;55.792;2022-12-29T05:04:07;11.35;;;3.90;;
65210;SDS011;51794;52.758;55.792;2022-12-29T05:06:33;9.05;;;3.92;;
65210;SDS011;51794;52.758;55.792;2022-12-29T05:08:59;7.22;;;3.78;;
65210;SDS011;51794;52.758;55.792;2022-12-29T05:11:25;8.10;;;3.72;;
65210;SDS011;51794;52.758;55.792;2022-12-29T05:13:51;7.65;;;3.85;;
65210;SDS011;51794;52.758;55.792;2022-12-29T05:16:17;9.00;;;3.97;;
65210;SDS011;51794;52.758;55.792;2022-12-29T05:18:43;8.30;;;3.97;;
65210;SDS011;51794;52.758;55.792;2022-12-29T05:21:09;7.22;;;3.58;;
65210;SDS011;51794;52.758;55.792;2022-12-29T05:23:35;8.40;;;3.17;;
65210;SDS011;51794;52.758;55.792;2022-12-29T05:26:01;6.70;;;3.42;;
65210;SDS011;51794;52.758;55.792;2022-12-29T05:28:27;6.38;;;2.95;;
65210;SDS011;51794;52.758;55.792;2022-12-29T05:30:53;8.63;;;3.53;;
65210;SDS011;51794;52.758;55.792;2022-12-29T05:33:19;7.53;;;3.67;;
65210;SDS011;51794;52.758;55.792;2022-12-29T05:35:45;9.40;;;3.58;;
65210;SDS011;51794;52.758;55.792;2022-12-29T05:38:11;7.57;;;3.55;;
65210;SDS011;51794;52.758;55.792;2022-12-29T05:40:37;7.80;;;3.50;;
65210;SDS011;51794;52.758;55.792;2022-12-29T05:43:03;5.20;;;2.63;;
65210;SDS011;51794;52.758;55.792;2022-12-29T05:45:29;6.43;;;3.22;;
65210;SDS011;51794;52.758;55.792;2022-12-29T05:47:55;6.63;;;3.47;;
65210;SDS011;51794;52.758;55.792;2022-12-29T05:50:21;5.10;;;2.92;;
65210;SDS011;51794;52.758;55.792;2022-12-29T05:52:47;9.60;;;3.95;;
65210;SDS011;51794;52.758;55.792;2022-12-29T05:55:13;6.80;;;3.38;;
65210;SDS011;51794;52.758;55.792;2022-12-29T05:57:39;4.40;;;2.28;;
65210;SDS011;51794;52.758;55.792;2022-12-29T06:00:05;6.93;;;3.67;;
65210;SDS011;51794;52.758;55.792;2022-12-29T06:02:32;5.47;;;2.97;;
65210;SDS011;51794;52.758;55.792;2022-12-29T06:04:58;4.32;;;2.50;;
65210;SDS011;51794;52.758;55.792;2022-12-29T06:07:24;6.20;;;3.03;;
65210;SDS011;51794;52.758;55.792;2022-12-29T06:09:50;6.32;;;3.17;;
65210;SDS011;51794;52.758;55.792;2022-12-29T06:12:17;8.40;;;4.13;;
65210;SDS011;51794;52.758;55.792;2022-12-29T06:14:43;5.82;;;2.40;;
65210;SDS011;51794;52.758;55.792;2022-12-29T06:17:09;3.75;;;2.05;;
65210;SDS011;51794;52.758;55.792;2022-12-29T06:19:35;7.13;;;3.58;;
65210;SDS011;51794;52.758;55.792;2022-12-29T06:22:01;7.30;;;3.08;;
65210;SDS011;51794;52.758;55.792;2022-12-29T06:24:27;3.40;;;2.28;;
65210;SDS011;51794;52.758;55.792;2022-12-29T06:26:53;7.30;;;3.50;;
65210;SDS011;51794;52.758;55.792;2022-12-29T06:29:19;6.30;;;3.25;;
65210;SDS011;51794;52.758;55.792;2022-12-29T06:31:45;8.80;;;3.88;;
65210;SDS011;51794;52.758;55.792;2022-12-29T06:34:12;7.95;;;3.50;;
65210;SDS011;51794;52.758;55.792;2022-12-29T06:36:38;8.45;;;3.25;;
65210;SDS011;51794;52.758;55.792;2022-12-29T06:39:05;9.20;;;4.18;;
65210;SDS011;51794;52.758;55.792;2022-12-29T06:41:31;6.63;;;3.78;;
65210;SDS011;51794;52.758;55.792;2022-12-29T06:43:57;8.60;;;4.20;;
65210;SDS011;51794;52.758;55.792;2022-12-29T06:46:23;11.23;;;3.78;;
65210;SDS011;51794;52.758;55.792;2022-12-29T06:48:49;9.38;;;4.07;;
65210;SDS011;51794;52.758;55.792;2022-12-29T06:51:15;9.02;;;3.85;;
65210;SDS011;51794;52.758;55.792;2022-12-29T06:53:41;11.32;;;4.22;;
65210;SDS011;51794;52.758;55.792;2022-12-29T06:56:07;9.48;;;3.97;;
65210;SDS011;51794;52.758;55.792;2022-12-29T06:58:34;6.57;;;3.50;;
65210;SDS011;51794;52.758;55.792;2022-12-29T07:00:59;7.85;;;3.53;;
65210;SDS011;51794;52.758;55.792;2022-12-29T07:03:25;5.53;;;3.15;;
65210;SDS011;51794;52.758;55.792;2022-12-29T07:05:51;8.02;;;4.10;;
65210;SDS011;51794;52.758;55.792;2022-12-29T07:08:19;7.40;;;4.03;;
65210;SDS011;51794;52.758;55.792;2022-12-29T07:10:46;7.43;;;4.22;;
65210;SDS011;51794;52.758;55.792;2022-12-29T07:13:12;9.02;;;4.20;;
65210;SDS011;51794;52.758;55.792;2022-12-29T07:15:38;11.13;;;5.07;;
65210;SDS011;51794;52.758;55.792;2022-12-29T07:18:04;7.72;;;4.22;;
65210;SDS011;51794;52.758;55.792;2022-12-29T07:20:31;7.82;;;3.65;;
65210;SDS011;51794;52.758;55.792;2022-12-29T07:22:57;10.25;;;4.40;;
65210;SDS011;51794;52.758;55.792;2022-12-29T07:25:23;10.20;;;4.22;;
65210;SDS011;51794;52.758;55.792;2022-12-29T07:27:49;7.13;;;4.00;;
65210;SDS011;51794;52.758;55.792;2022-12-29T07:30:16;7.53;;;3.88;;
65210;SDS011;51794;52.758;55.792;2022-12-29T07:32:42;10.10;;;5.00;;
65210;SDS011;51794;52.758;55.792;2022-12-29T07:35:07;8.73;;;4.68;;
65210;SDS011;51794;52.758;55.792;2022-12-29T07:37:33;9.40;;;4.60;;
65210;SDS011;51794;52.758;55.792;2022-12-29T07:40:00;8.90;;;4.22;;
65210;SDS011;51794;52.758;55.792;2022-12-29T07:42:30;8.40;;;3.97;;
65210;SDS011;51794;52.758;55.792;2022-12-29T07:44:56;8.55;;;4.10;;
65210;SDS011;51794;52.758;55.792;2022-12-29T07:47:22;9.40;;;3.80;;
65210;SDS011;51794;52.758;55.792;2022-12-29T07:49:48;7.45;;;3.85;;
65210;SDS011;51794;52.758;55.792;2022-12-29T07:52:14;7.22;;;3.95;;
65210;SDS011;51794;52.758;55.792;2022-12-29T07:54:40;9.57;;;3.95;;
65210;SDS011;51794;52.758;55.792;2022-12-29T07:57:06;7.45;;;3.95;;
65210;SDS011;51794;52.758;55.792;2022-12-29T07:59:32;8.63;;;3.80;;
65210;SDS011;51794;52.758;55.792;2022-12-29T08:01:58;8.15;;;4.20;;
65210;SDS011;51794;52.758;55.792;2022-12-29T08:04:24;8.30;;;3.80;;
65210;SDS011;51794;52.758;55.792;2022-12-29T08:06:50;8.02;;;3.90;;
65210;SDS011;51794;52.758;55.792;2022-12-29T08:09:16;9.57;;;4.70;;
65210;SDS011;51794;52.758;55.792;2022-12-29T08:11:42;8.77;;;3.80;;
65210;SDS011;51794;52.758;55.792;2022-12-29T08:14:08;8.95;;;3.80;;
65210;SDS011;51794;52.758;55.792;2022-12-29T08:16:35;8.73;;;4.18;;
65210;SDS011;51794;52.758;55.792;2022-12-29T08:19:01;7.60;;;3.47;;
65210;SDS011;51794;52.758;55.792;2022-12-29T08:21:29;6.60;;;3.38;;
65210;SDS011;51794;52.758;55.792;2022-12-29T08:23:55;10.32;;;4.80;;
65210;SDS011;51794;52.758;55.792;2022-12-29T08:26:21;6.20;;;3.15;;
65210;SDS011;51794;52.758;55.792;2022-12-29T08:28:47;7.32;;;3.83;;
65210;SDS011;51794;52.758;55.792;2022-12-29T08:31:13;8.95;;;4.57;;
65210;SDS011;51794;52.758;55.792;2022-12-29T08:33:39;8.27;;;3.70;;
65210;SDS011;51794;52.758;55.792;2022-12-29T08:36:06;6.78;;;3.95;;
65210;SDS011;51794;52.758;55.792;2022-12-29T08:38:32;6.97;;;3.88;;
65210;SDS011;51794;52.758;55.792;2022-12-29T08:40:58;9.68;;;4.43;;
65210;SDS011;51794;52.758;55.792;2022-12-29T08:43:26;9.00;;;4.45;;
65210;SDS011;51794;52.758;55.792;2022-12-29T08:45:53;9.75;;;4.18;;
65210;SDS011;51794;52.758;55.792;2022-12-29T08:48:25;8.68;;;4.40;;
65210;SDS011;51794;52.758;55.792;2022-12-29T08:50:52;10.85;;;3.60;;
65210;SDS011;51794;52.758;55.792;2022-12-29T08:53:18;8.13;;;3.88;;
65210;SDS011;51794;52.758;55.792;2022-12-29T08:55:56;9.23;;;4.53;;
65210;SDS011;51794;52.758;55.792;2022-12-29T08:58:26;11.77;;;5.15;;
65210;SDS011;51794;52.758;55.792;2022-12-29T09:00:55;9.63;;;4.28;;
65210;SDS011;51794;52.758;55.792;2022-12-29T09:03:23;9.63;;;5.05;;
65210;SDS011;51794;52.758;55.792;2022-12-29T09:05:50;10.35;;;4.70;;
65210;SDS011;51794;52.758;55.792;2022-12-29T09:08:17;9.40;;;4.05;;
65210;SDS011;51794;52.758;55.792;2022-12-29T09:10:46;8.13;;;4.28;;
65210;SDS011;51794;52.758;55.792;2022-12-29T09:13:13;8.80;;;4.30;;
65210;SDS011;51794;52.758;55.792;2022-12-29T09:15:40;7.90;;;4.22;;
65210;SDS011;51794;52.758;55.792;2022-12-29T09:18:07;8.80;;;3.55;;
65210;SDS011;51794;52.758;55.792;2022-12-29T09:20:34;8.48;;;4.50;;
65210;SDS011;51794;52.758;55.792;2022-12-29T09:23:00;10.50;;;4.88;;
65210;SDS011;51794;52.758;55.792;2022-12-29T09:25:27;8.57;;;4.57;;
65210;SDS011;51794;52.758;55.792;2022-12-29T09:27:53;8.93;;;4.10;;
65210;SDS011;51794;52.758;55.792;2022-12-29T09:30:20;9.63;;;4.55;;
65210;SDS011;51794;52.758;55.792;2022-12-29T09:32:48;9.93;;;4.15;;
65210;SDS011;51794;52.758;55.792;2022-12-29T09:35:15;10.63;;;4.50;;
65210;SDS011;51794;52.758;55.792;2022-12-29T09:37:42;10.85;;;4.60;;
65210;SDS011;51794;52.758;55.792;2022-12-29T09:40:25;8.57;;;3.80;;
65210;SDS011;51794;52.758;55.792;2022-12-29T09:42:59;10.27;;;4.97;;
65210;SDS011;51794;52.758;55.792;2022-12-29T09:45:58;9.48;;;4.57;;
65210;SDS011;51794;52.758;55.792;2022-12-29T09:55:34;7.07;;;4.32;;
65210;SDS011;51794;52.758;55.792;2022-12-29T10:07:55;9.13;;;4.63;;
65210;SDS011;51794;52.758;55.792;2022-12-29T10:10:40;9.88;;;4.22;;
65210;SDS011;51794;52.758;55.792;2022-12-29T10:16:25;6.40;;;4.00;;
65210;SDS011;51794;52.758;55.792;2022-12-29T10:24:25;7.72;;;3.70;;
65210;SDS011;51794;52.758;55.792;2022-12-29T10:26:53;7.68;;;3.75;;
65210;SDS011;51794;52.758;55.792;2022-12-29T10:29:24;9.25;;;3.90;;
65210;SDS011;51794;52.758;55.792;2022-12-29T10:32:00;10.00;;;4.63;;
65210;SDS011;51794;52.758;55.792;2022-12-29T10:36:54;9.88;;;4.85;;
65210;SDS011;51794;52.758;55.792;2022-12-29T10:44:48;10.23;;;4.70;;
65210;SDS011;51794;52.758;55.792;2022-12-29T10:47:18;11.48;;;4.80;;
65210;SDS011;51794;52.758;55.792;2022-12-29T10:49:49;10.35;;;4.53;;
65210;SDS011;51794;52.758;55.792;2022-12-29T10:52:16;7.60;;;3.53;;
65210;SDS011;51794;52.758;55.792;2022-12-29T10:59:54;8.52;;;4.10;;
65210;SDS011;51794;52.758;55.792;2022-12-29T11:05:06;8.18;;;4.13;;
65210;SDS011;51794;52.758;55.792;2022-12-29T11:07:41;7.03;;;3.20;;
65210;SDS011;51794;52.758;55.792;2022-12-29T11:10:29;6.45;;;3.65;;
65210;SDS011;51794;52.758;55.792;2022-12-29T11:13:12;8.88;;;4.30;;
65210;SDS011;51794;52.758;55.792;2022-12-29T11:15:45;9.07;;;4.50;;
65210;SDS011;51794;52.758;55.792;2022-12-29T11:21:05;8.45;;;3.47;;
65210;SDS011;51794;52.758;55.792;2022-12-29T11:23:34;10.43;;;4.88;;
65210;SDS011;51794;52.758;55.792;2022-12-29T11:28:36;8.15;;;3.70;;
65210;SDS011;51794;52.758;55.792;2022-12-29T11:31:04;9.35;;;4.40;;
65210;SDS011;51794;52.758;55.792;2022-12-29T11:33:32;9.77;;;4.15;;
65210;SDS011;51794;52.758;55.792;2022-12-29T11:38:42;7.60;;;3.55;;
65210;SDS011;51794;52.758;55.792;2022-12-29T11:41:18;12.23;;;5.18;;
65210;SDS011;51794;52.758;55.792;2022-12-29T11:43:49;8.85;;;3.88;;
65210;SDS011;51794;52.758;55.792;2022-12-29T11:46:18;10.82;;;3.97;;
65210;SDS011;51794;52.758;55.792;2022-12-29T11:48:48;8.68;;;3.63;;
65210;SDS011;51794;52.758;55.792;2022-12-29T11:51:25;10.45;;;4.80;;
65210;SDS011;51794;52.758;55.792;2022-12-29T11:54:01;10.20;;;4.85;;
65210;SDS011;51794;52.758;55.792;2022-12-29T11:56:36;10.57;;;3.72;;
65210;SDS011;51794;52.758;55.792;2022-12-29T12:02:00;8.45;;;4.28;;
65210;SDS011;51794;52.758;55.792;2022-12-29T12:04:36;10.02;;;4.28;;
65210;SDS011;51794;52.758;55.792;2022-12-29T12:07:11;10.13;;;4.60;;
65210;SDS011;51794;52.758;55.792;2022-12-29T12:09:56;8.68;;;4.35;;
65210;SDS011;51794;52.758;55.792;2022-12-29T12:12:43;13.35;;;4.97;;
65210;SDS011;51794;52.758;55.792;2022-12-29T12:15:16;13.48;;;4.30;;
65210;SDS011;51794;52.758;55.792;2022-12-29T12:18:00;9.68;;;4.85;;
65210;SDS011;51794;52.758;55.792;2022-12-29T12:20:32;7.95;;;4.43;;
65210;SDS011;51794;52.758;55.792;2022-12-29T12:23:38;10.13;;;4.07;;
65210;SDS011;51794;52.758;55.792;2022-12-29T12:26:30;9.35;;;4.13;;
65210;SDS011;51794;52.758;55.792;2022-12-29T12:44:28;12.90;;;5.07;;
65210;SDS011;51794;52.758;55.792;2022-12-29T13:00:15;12.30;;;4.72;;
65210;SDS011;51794;52.758;55.792;2022-12-29T13:02:55;10.43;;;4.88;;
65210;SDS011;51794;52.758;55.792;2022-12-29T13:14:02;11.25;;;5.03;;
65210;SDS011;51794;52.758;55.792;2022-12-29T13:22:15;12.05;;;4.97;;
65210;SDS011;51794;52.758;55.792;2022-12-29T13:25:08;11.40;;;4.90;;
65210;SDS011;51794;52.758;55.792;2022-12-29T13:34:02;8.68;;;3.78;;
65210;SDS011;51794;52.758;55.792;2022-12-29T13:36:40;11.57;;;5.00;;
65210;SDS011;51794;52.758;55.792;2022-12-29T13:39:19;14.05;;;5.28;;
65210;SDS011;51794;52.758;55.792;2022-12-29T13:41:56;11.88;;;5.65;;
65210;SDS011;51794;52.758;55.792;2022-12-29T13:47:29;10.82;;;4.95;;
65210;SDS011;51794;52.758;55.792;2022-12-29T13:50:08;12.18;;;5.18;;
65210;SDS011;51794;52.758;55.792;2022-12-29T13:55:41;10.00;;;4.80;;
65210;SDS011;51794;52.758;55.792;2022-12-29T14:03:55;11.65;;;5.03;;
65210;SDS011;51794;52.758;55.792;2022-12-29T14:06:23;8.63;;;3.95;;
65210;SDS011;51794;52.758;55.792;2022-12-29T14:09:06;11.93;;;5.20;;
65210;SDS011;51794;52.758;55.792;2022-12-29T14:11:51;11.10;;;4.90;;
65210;SDS011;51794;52.758;55.792;2022-12-29T14:14:28;12.52;;;5.70;;
65210;SDS011;51794;52.758;55.792;2022-12-29T14:17:08;14.82;;;5.80;;
65210;SDS011;51794;52.758;55.792;2022-12-29T14:19:38;11.77;;;4.95;;
65210;SDS011;51794;52.758;55.792;2022-12-29T14:22:07;12.00;;;5.60;;
65210;SDS011;51794;52.758;55.792;2022-12-29T14:27:39;11.63;;;5.60;;
65210;SDS011;51794;52.758;55.792;2022-12-29T14:29:50;8.57;;;4.40;;
65210;SDS011;51794;52.758;55.792;2022-12-29T14:35:32;10.85;;;5.07;;
65210;SDS011;51794;52.758;55.792;2022-12-29T14:38:19;10.23;;;4.50;;
65210;SDS011;51794;52.758;55.792;2022-12-29T14:41:15;11.43;;;5.00;;
65210;SDS011;51794;52.758;55.792;2022-12-29T14:46:58;10.75;;;5.10;;
65210;SDS011;51794;52.758;55.792;2022-12-29T14:49:31;9.27;;;4.75;;
65210;SDS011;51794;52.758;55.792;2022-12-29T14:57:30;11.50;;;5.72;;
65210;SDS011;51794;52.758;55.792;2022-12-29T15:00:14;11.90;;;5.35;;
65210;SDS011;51794;52.758;55.792;2022-12-29T15:02:47;11.10;;;5.68;;
65210;SDS011;51794;52.758;55.792;2022-12-29T15:05:36;13.48;;;5.60;;
65210;SDS011;51794;52.758;55.792;2022-12-29T15:08:09;17.08;;;6.57;;
65210;SDS011;51794;52.758;55.792;2022-12-29T15:10:42;13.43;;;5.25;;
65210;SDS011;51794;52.758;55.792;2022-12-29T15:13:15;11.00;;;5.18;;
65210;SDS011;51794;52.758;55.792;2022-12-29T15:15:50;13.43;;;6.10;;
65210;SDS011;51794;52.758;55.792;2022-12-29T15:18:25;14.90;;;5.85;;
65210;SDS011;51794;52.758;55.792;2022-12-29T15:21:03;16.00;;;6.32;;
65210;SDS011;51794;52.758;55.792;2022-12-29T15:23:31;13.07;;;5.43;;
65210;SDS011;51794;52.758;55.792;2022-12-29T15:26:00;14.38;;;6.30;;
65210;SDS011;51794;52.758;55.792;2022-12-29T15:28:36;13.10;;;5.80;;
65210;SDS011;51794;52.758;55.792;2022-12-29T15:31:15;14.43;;;6.20;;
65210;SDS011;51794;52.758;55.792;2022-12-29T15:33:44;14.82;;;6.18;;
65210;SDS011;51794;52.758;55.792;2022-12-29T15:36:14;13.75;;;4.93;;
65210;SDS011;51794;52.758;55.792;2022-12-29T15:38:45;11.95;;;5.13;;
65210;SDS011;51794;52.758;55.792;2022-12-29T15:43:49;11.85;;;5.53;;
65210;SDS011;51794;52.758;55.792;2022-12-29T15:46:18;13.98;;;5.90;;
65210;SDS011;51794;52.758;55.792;2022-12-29T15:48:45;15.77;;;5.80;;
65210;SDS011;51794;52.758;55.792;2022-12-29T15:51:22;11.65;;;5.53;;
65210;SDS011;51794;52.758;55.792;2022-12-29T15:53:55;11.57;;;5.75;;
65210;SDS011;51794;52.758;55.792;2022-12-29T15:56:21;10.35;;;4.18;;
65210;SDS011;51794;52.758;55.792;2022-12-29T15:58:48;14.88;;;5.82;;
65210;SDS011;51794;52.758;55.792;2022-12-29T16:01:17;12.43;;;5.00;;
65210;SDS011;51794;52.758;55.792;2022-12-29T16:03:44;13.52;;;5.68;;
65210;SDS011;51794;52.758;55.792;2022-12-29T16:06:33;17.45;;;6.43;;
65210;SDS011;51794;52.758;55.792;2022-12-29T16:11:55;16.98;;;5.85;;
65210;SDS011;51794;52.758;55.792;2022-12-29T16:14:37;11.32;;;5.60;;
65210;SDS011;51794;52.758;55.792;2022-12-29T16:17:11;16.02;;;6.15;;
65210;SDS011;51794;52.758;55.792;2022-12-29T16:19:41;14.80;;;5.25;;
65210;SDS011;51794;52.758;55.792;2022-12-29T16:22:32;16.98;;;6.47;;
65210;SDS011;51794;52.758;55.792;2022-12-29T16:25:03;11.55;;;4.65;;
65210;SDS011;51794;52.758;55.792;2022-12-29T16:27:37;15.85;;;5.95;;
65210;SDS011;51794;52.758;55.792;2022-12-29T16:30:12;13.77;;;6.15;;
65210;SDS011;51794;52.758;55.792;2022-12-29T16:32:47;15.55;;;6.20;;
65210;SDS011;51794;52.758;55.792;2022-12-29T16:35:19;17.25;;;6.53;;
65210;SDS011;51794;52.758;55.792;2022-12-29T16:37:48;16.10;;;6.55;;
65210;SDS011;51794;52.758;55.792;2022-12-29T16:40:38;11.43;;;5.18;;
65210;SDS011;51794;52.758;55.792;2022-12-29T16:43:33;9.82;;;4.25;;
65210;SDS011;51794;52.758;55.792;2022-12-29T16:46:27;12.85;;;5.45;;
65210;SDS011;51794;52.758;55.792;2022-12-29T16:48:55;8.65;;;4.18;;
65210;SDS011;51794;52.758;55.792;2022-12-29T16:51:30;15.27;;;5.30;;
65210;SDS011;51794;52.758;55.792;2022-12-29T16:53:58;12.65;;;5.72;;
65210;SDS011;51794;52.758;55.792;2022-12-29T16:56:26;15.55;;;6.43;;
65210;SDS011;51794;52.758;55.792;2022-12-29T17:01:27;13.45;;;4.68;;
65210;SDS011;51794;52.758;55.792;2022-12-29T17:03:55;15.45;;;6.05;;
65210;SDS011;51794;52.758;55.792;2022-12-29T17:06:26;14.73;;;5.38;;
65210;SDS011;51794;52.758;55.792;2022-12-29T17:08:52;15.07;;;6.30;;
65210;SDS011;51794;52.758;55.792;2022-12-29T17:14:18;12.15;;;5.35;;
65210;SDS011;51794;52.758;55.792;2022-12-29T17:17:04;12.10;;;5.15;;
65210;SDS011;51794;52.758;55.792;2022-12-29T17:19:37;8.50;;;3.95;;
65210;SDS011;51794;52.758;55.792;2022-12-29T17:22:17;8.25;;;3.55;;
65210;SDS011;51794;52.758;55.792;2022-12-29T17:24:46;12.60;;;5.00;;
65210;SDS011;51794;52.758;55.792;2022-12-29T17:27:18;10.50;;;4.45;;
65210;SDS011;51794;52.758;55.792;2022-12-29T17:29:48;12.23;;;4.85;;
65210;SDS011;51794;52.758;55.792;2022-12-29T17:32:18;13.63;;;5.70;;
65210;SDS011;51794;52.758;55.792;2022-12-29T17:34:44;15.45;;;6.10;;
65210;SDS011;51794;52.758;55.792;2022-12-29T17:37:52;12.05;;;4.65;;
65210;SDS011;51794;52.758;55.792;2022-12-29T17:40:02;7.18;;;3.13;;
65210;SDS011;51794;52.758;55.792;2022-12-29T17:42:30;8.57;;;4.13;;
65210;SDS011;51794;52.758;55.792;2022-12-29T17:45:02;12.70;;;5.38;;
65210;SDS011;51794;52.758;55.792;2022-12-29T17:47:29;11.43;;;5.68;;
65210;SDS011;51794;52.758;55.792;2022-12-29T17:49:55;11.35;;;5.57;;
65210;SDS011;51794;52.758;55.792;2022-12-29T17:52:21;11.32;;;5.00;;